Time,TemperatureF,DewpointF,PressureIn,WindDirection,WindDirectionDegrees,WindSpeedMPH,WindSpeedGustMPH,Humidity,HourlyPrecipIn,Conditions,Clouds,dailyrainin,SolarRadiationWatts/m^2,SoftwareType,DateUTC
2013-10-08 00:01:00,60.1,55.6,30.01,West,269,0.0,6.0,85,0.00,,,0.02,0.0,meteohub,2013-10-08 04:01:00,
2013-10-08 00:02:00,60.1,55.6,30.01,West,276,0.0,6.0,85,0.00,,,0.02,0.0,meteohub,2013-10-08 04:02:00,
2013-10-08 00:03:00,60.1,55.6,30.01,West,276,0.0,6.0,85,0.00,,,0.02,0.0,meteohub,2013-10-08 04:03:00,
2013-10-08 00:04:00,60.1,55.6,30.01,West,276,2.0,6.0,85,0.00,,,0.02,0.0,meteohub,2013-10-08 04:04:00,
2013-10-08 00:09:00,60.1,55.6,30.01,West,276,1.0,4.0,85,0.00,,,0.02,0.0,meteohub,2013-10-08 04:09:00,
2013-10-08 00:14:00,59.9,55.4,30.02,West,279,0.0,4.0,85,0.00,,,0.02,0.0,meteohub,2013-10-08 04:14:00,
2013-10-08 00:19:00,59.7,55.2,30.02,NW,310,0.0,4.0,85,0.00,,,0.02,0.0,meteohub,2013-10-08 04:19:00,
2013-10-08 00:24:00,59.5,55.0,30.02,NW,310,0.0,4.0,85,0.00,,,0.02,0.0,meteohub,2013-10-08 04:24:00,
2013-10-08 00:29:00,59.4,54.9,30.02,NW,311,2.0,4.0,85,0.00,,,0.02,0.0,meteohub,2013-10-08 04:29:00,
2013-10-08 00:35:00,59.0,54.5,30.02,SW,236,1.0,4.0,85,0.00,,,0.02,0.0,meteohub,2013-10-08 04:35:00,
2013-10-08 00:40:00,58.8,54.3,30.03,West,272,0.0,5.0,85,0.00,,,0.02,0.0,meteohub,2013-10-08 04:40:00,
2013-10-08 00:45:00,58.6,54.1,30.02,WNW,289,0.0,5.0,85,0.00,,,0.02,0.0,meteohub,2013-10-08 04:45:00,
2013-10-08 00:50:00,58.5,54.0,30.02,WSW,258,3.0,5.0,85,0.00,,,0.02,0.0,meteohub,2013-10-08 04:50:00,
2013-10-08 00:55:00,58.5,54.0,30.03,WNW,286,0.0,5.0,85,0.00,,,0.02,0.0,meteohub,2013-10-08 04:55:00,
2013-10-08 01:00:00,58.3,53.8,30.03,NW,304,0.0,5.0,85,0.00,,,0.02,0.0,meteohub,2013-10-08 05:00:00,
2013-10-08 01:05:00,58.1,53.6,30.03,WNW,295,0.0,5.0,85,0.00,,,0.02,0.0,meteohub,2013-10-08 05:05:00,
2013-10-08 01:10:00,57.9,53.4,30.04,WNW,294,1.0,5.0,85,0.00,,,0.02,0.0,meteohub,2013-10-08 05:10:00,
2013-10-08 01:16:00,57.7,53.2,30.04,WNW,288,0.0,5.0,85,0.00,,,0.02,0.0,meteohub,2013-10-08 05:16:00,
2013-10-08 01:21:00,57.6,53.1,30.04,NW,323,0.0,5.0,85,0.00,,,0.02,0.0,meteohub,2013-10-08 05:21:00,
2013-10-08 01:26:00,57.6,53.1,30.04,NW,325,0.0,6.0,85,0.00,,,0.02,0.0,meteohub,2013-10-08 05:26:00,
2013-10-08 01:31:00,57.4,52.9,30.05,West,281,0.0,6.0,85,0.00,,,0.02,0.0,meteohub,2013-10-08 05:31:00,
2013-10-08 01:36:00,57.2,52.7,30.05,WNW,282,1.0,5.0,85,0.00,,,0.02,0.0,meteohub,2013-10-08 05:36:00,
2013-10-08 01:41:00,57.0,52.2,30.05,WSW,254,0.0,5.0,84,0.00,,,0.02,0.0,meteohub,2013-10-08 05:41:00,
2013-10-08 01:46:00,57.0,52.2,30.06,NW,316,0.0,5.0,84,0.00,,,0.02,0.0,meteohub,2013-10-08 05:46:00,
2013-10-08 01:52:00,56.8,52.0,30.06,NW,316,1.0,4.0,84,0.00,,,0.02,0.0,meteohub,2013-10-08 05:52:00,
2013-10-08 01:57:00,56.8,52.3,30.06,NW,313,0.0,4.0,85,0.00,,,0.02,0.0,meteohub,2013-10-08 05:57:00,
2013-10-08 02:02:00,56.7,52.2,30.06,NW,313,0.0,4.0,85,0.00,,,0.02,0.0,meteohub,2013-10-08 06:02:00,
2013-10-08 02:07:00,56.7,52.2,30.07,NW,313,0.0,4.0,85,0.00,,,0.02,0.0,meteohub,2013-10-08 06:07:00,
2013-10-08 02:12:00,56.5,52.0,30.06,NW,313,0.0,4.0,85,0.00,,,0.02,0.0,meteohub,2013-10-08 06:12:00,
2013-10-08 02:17:00,56.1,52.0,30.06,NW,313,0.0,1.0,86,0.00,,,0.02,0.0,meteohub,2013-10-08 06:17:00,
2013-10-08 02:22:00,55.9,51.8,30.06,NW,313,0.0,3.0,86,0.00,,,0.02,0.0,meteohub,2013-10-08 06:22:00,
2013-10-08 02:27:00,55.8,51.6,30.06,NW,311,0.0,3.0,86,0.00,,,0.02,0.0,meteohub,2013-10-08 06:27:00,
2013-10-08 02:32:00,55.6,51.8,30.07,NW,307,1.0,4.0,87,0.00,,,0.02,0.0,meteohub,2013-10-08 06:32:00,
2013-10-08 02:37:00,55.4,51.6,30.07,NW,313,3.0,5.0,87,0.00,,,0.02,0.0,meteohub,2013-10-08 06:37:00,
2013-10-08 02:42:00,55.2,51.4,30.07,NW,313,2.0,5.0,87,0.00,,,0.02,0.0,meteohub,2013-10-08 06:42:00,
2013-10-08 02:47:00,55.2,51.4,30.07,NW,311,0.0,5.0,87,0.00,,,0.02,0.0,meteohub,2013-10-08 06:47:00,
2013-10-08 02:52:00,55.0,50.9,30.07,NW,315,0.0,5.0,86,0.00,,,0.02,0.0,meteohub,2013-10-08 06:52:00,
2013-10-08 02:57:00,55.0,50.9,30.07,NNW,347,0.0,4.0,86,0.00,,,0.02,0.0,meteohub,2013-10-08 06:57:00,
2013-10-08 03:02:00,55.0,50.9,30.08,NNW,347,0.0,5.0,86,0.00,,,0.02,0.0,meteohub,2013-10-08 07:02:00,
2013-10-08 03:07:00,54.9,50.4,30.08,NNW,342,0.0,5.0,85,0.00,,,0.02,0.0,meteohub,2013-10-08 07:07:00,
2013-10-08 03:12:00,54.7,50.2,30.08,NW,319,0.0,5.0,85,0.00,,,0.02,0.0,meteohub,2013-10-08 07:12:00,
2013-10-08 03:17:00,54.7,50.2,30.08,NW,315,1.0,5.0,85,0.00,,,0.02,0.0,meteohub,2013-10-08 07:17:00,
2013-10-08 03:22:00,54.7,50.2,30.08,NNW,327,0.0,6.0,85,0.00,,,0.02,0.0,meteohub,2013-10-08 07:22:00,
2013-10-08 03:27:00,54.5,50.0,30.08,WNW,282,1.0,6.0,85,0.00,,,0.02,0.0,meteohub,2013-10-08 07:27:00,
2013-10-08 03:32:00,54.5,49.8,30.08,NW,325,3.0,6.0,84,0.00,,,0.02,0.0,meteohub,2013-10-08 07:32:00,
2013-10-08 03:37:00,54.3,49.6,30.09,NW,325,3.0,6.0,84,0.00,,,0.02,0.0,meteohub,2013-10-08 07:37:00,
2013-10-08 03:42:00,54.3,49.6,30.09,NW,305,3.0,6.0,84,0.00,,,0.02,0.0,meteohub,2013-10-08 07:42:00,
2013-10-08 03:47:00,54.1,49.5,30.09,WNW,296,2.0,7.0,84,0.00,,,0.02,0.0,meteohub,2013-10-08 07:47:00,
2013-10-08 03:52:00,54.1,49.5,30.09,NW,318,1.0,7.0,84,0.00,,,0.02,0.0,meteohub,2013-10-08 07:52:00,
2013-10-08 03:57:00,54.1,49.5,30.09,NW,309,1.0,7.0,84,0.00,,,0.02,0.0,meteohub,2013-10-08 07:57:00,
2013-10-08 04:02:00,54.1,49.5,30.09,NW,323,7.0,7.0,84,0.00,,,0.02,0.0,meteohub,2013-10-08 08:02:00,
2013-10-08 04:07:00,54.1,49.5,30.10,NW,321,2.0,7.0,84,0.00,,,0.02,0.0,meteohub,2013-10-08 08:07:00,
2013-10-08 04:12:00,54.1,49.1,30.10,NW,325,1.0,7.0,83,0.00,,,0.02,0.0,meteohub,2013-10-08 08:12:00,
2013-10-08 04:17:00,54.0,48.9,30.10,NW,304,4.0,7.0,83,0.00,,,0.02,0.0,meteohub,2013-10-08 08:17:00,
2013-10-08 04:22:00,54.0,48.9,30.10,NW,319,2.0,9.0,83,0.00,,,0.02,0.0,meteohub,2013-10-08 08:22:00,
2013-10-08 04:27:00,54.0,48.9,30.10,NW,308,6.0,9.0,83,0.00,,,0.02,0.0,meteohub,2013-10-08 08:27:00,
2013-10-08 04:32:00,54.0,48.9,30.10,NW,318,1.0,9.0,83,0.00,,,0.02,0.0,meteohub,2013-10-08 08:32:00,
2013-10-08 04:37:00,54.0,48.9,30.11,NW,306,0.0,7.0,83,0.00,,,0.02,0.0,meteohub,2013-10-08 08:37:00,
2013-10-08 04:42:00,54.0,48.9,30.11,NNW,336,4.0,7.0,83,0.00,,,0.02,0.0,meteohub,2013-10-08 08:42:00,
2013-10-08 04:47:00,53.8,48.7,30.11,NNW,336,3.0,7.0,83,0.00,,,0.02,0.0,meteohub,2013-10-08 08:47:00,
2013-10-08 04:52:00,53.8,48.4,30.11,NW,314,4.0,4.0,82,0.00,,,0.02,0.0,meteohub,2013-10-08 08:52:00,
2013-10-08 04:57:00,53.8,48.4,30.11,NW,314,0.0,4.0,82,0.00,,,0.02,0.0,meteohub,2013-10-08 08:57:00,
2013-10-08 05:02:00,53.6,48.2,30.12,NW,304,2.0,4.0,82,0.00,,,0.02,0.0,meteohub,2013-10-08 09:02:00,
2013-10-08 05:07:00,53.6,48.2,30.12,NW,317,3.0,5.0,82,0.00,,,0.02,0.0,meteohub,2013-10-08 09:07:00,
2013-10-08 05:12:00,53.4,48.0,30.12,NW,317,0.0,5.0,82,0.00,,,0.02,0.0,meteohub,2013-10-08 09:12:00,
2013-10-08 05:17:00,53.4,48.0,30.12,NW,309,0.0,5.0,82,0.00,,,0.02,0.0,meteohub,2013-10-08 09:17:00,
2013-10-08 05:22:00,53.2,48.2,30.12,NW,314,0.0,5.0,83,0.00,,,0.02,0.0,meteohub,2013-10-08 09:22:00,
2013-10-08 05:27:00,53.2,47.8,30.12,NNW,327,1.0,6.0,82,0.00,,,0.02,0.0,meteohub,2013-10-08 09:27:00,
2013-10-08 05:32:00,53.2,47.8,30.12,NW,315,2.0,7.0,82,0.00,,,0.02,0.0,meteohub,2013-10-08 09:32:00,
2013-10-08 05:37:00,53.2,47.8,30.12,NW,312,2.0,7.0,82,0.00,,,0.02,0.0,meteohub,2013-10-08 09:37:00,
2013-10-08 05:42:00,53.1,47.7,30.12,NW,315,3.0,7.0,82,0.00,,,0.02,0.0,meteohub,2013-10-08 09:42:00,
2013-10-08 05:47:00,53.2,47.8,30.13,NW,322,2.0,6.0,82,0.00,,,0.02,0.0,meteohub,2013-10-08 09:47:00,
2013-10-08 05:52:00,53.2,47.5,30.13,NNW,332,0.0,6.0,81,0.00,,,0.02,0.0,meteohub,2013-10-08 09:52:00,
2013-10-08 05:57:00,53.2,47.5,30.14,NW,319,3.0,8.0,81,0.00,,,0.02,0.0,meteohub,2013-10-08 09:57:00,
2013-10-08 06:02:00,53.4,47.7,30.14,NW,308,1.0,8.0,81,0.00,,,0.02,0.0,meteohub,2013-10-08 10:02:00,
2013-10-08 06:07:00,53.4,47.7,30.13,NW,316,4.0,7.0,81,0.00,,,0.02,0.0,meteohub,2013-10-08 10:07:00,
2013-10-08 06:12:00,53.4,47.5,30.14,NW,317,1.0,7.0,80,0.00,,,0.02,0.0,meteohub,2013-10-08 10:12:00,
2013-10-08 06:17:00,53.4,47.5,30.14,NW,315,2.0,8.0,80,0.00,,,0.02,0.0,meteohub,2013-10-08 10:17:00,
2013-10-08 06:22:00,53.4,47.5,30.14,NW,315,3.0,8.0,80,0.00,,,0.02,0.0,meteohub,2013-10-08 10:22:00,
2013-10-08 06:27:00,53.4,47.5,30.14,NW,311,4.0,7.0,80,0.00,,,0.02,0.0,meteohub,2013-10-08 10:27:00,
2013-10-08 06:32:00,53.4,47.5,30.14,NW,306,5.0,7.0,80,0.00,,,0.02,0.0,meteohub,2013-10-08 10:32:00,
2013-10-08 06:37:00,53.4,47.5,30.14,NW,312,3.0,7.0,80,0.00,,,0.02,0.0,meteohub,2013-10-08 10:37:00,
2013-10-08 06:42:00,53.4,47.5,30.15,NNW,329,1.0,7.0,80,0.00,,,0.02,0.0,meteohub,2013-10-08 10:42:00,
2013-10-08 06:47:00,53.4,47.5,30.15,NW,317,2.0,7.0,80,0.00,,,0.02,0.0,meteohub,2013-10-08 10:47:00,
2013-10-08 06:52:00,53.4,47.5,30.15,NNW,329,1.0,6.0,80,0.00,,,0.02,0.0,meteohub,2013-10-08 10:52:00,
2013-10-08 06:57:00,53.4,47.5,30.16,North,355,0.0,8.0,80,0.00,,,0.02,0.0,meteohub,2013-10-08 10:57:00,
2013-10-08 07:02:00,53.4,47.5,30.17,North,0,1.0,8.0,80,0.00,,,0.02,0.0,meteohub,2013-10-08 11:02:00,
2013-10-08 07:07:00,53.8,48.0,30.17,NNW,345,0.0,8.0,81,0.00,,,0.02,0.0,meteohub,2013-10-08 11:07:00,
2013-10-08 07:12:00,54.1,48.0,30.17,NNW,342,2.0,4.0,80,0.00,,,0.02,7.0,meteohub,2013-10-08 11:12:00,
2013-10-08 07:17:00,54.1,48.0,30.17,NNW,332,0.0,5.0,80,0.00,,,0.02,11.0,meteohub,2013-10-08 11:17:00,
2013-10-08 07:22:00,54.1,48.0,30.17,North,0,3.0,7.0,80,0.00,,,0.02,16.0,meteohub,2013-10-08 11:22:00,
2013-10-08 07:27:00,54.3,48.0,30.18,North,350,0.0,7.0,79,0.00,,,0.02,25.0,meteohub,2013-10-08 11:27:00,
2013-10-08 07:32:00,54.5,48.2,30.18,NNW,327,0.0,7.0,79,0.00,,,0.02,28.0,meteohub,2013-10-08 11:32:00,
2013-10-08 07:37:00,54.7,48.4,30.18,NNW,337,0.0,7.0,79,0.00,,,0.02,33.0,meteohub,2013-10-08 11:37:00,
2013-10-08 07:42:00,54.7,48.0,30.19,NNW,327,3.0,5.0,78,0.00,,,0.02,37.0,meteohub,2013-10-08 11:42:00,
2013-10-08 07:47:00,54.7,48.0,30.19,North,355,0.0,5.0,78,0.00,,,0.02,40.0,meteohub,2013-10-08 11:47:00,
2013-10-08 07:52:00,54.9,48.2,30.19,NNW,336,0.0,4.0,78,0.00,,,0.02,39.0,meteohub,2013-10-08 11:52:00,
2013-10-08 07:57:00,54.9,48.2,30.20,NNE,26,5.0,5.0,78,0.00,,,0.02,37.0,meteohub,2013-10-08 11:57:00,
2013-10-08 08:02:00,55.0,48.4,30.21,NNW,339,4.0,5.0,78,0.00,,,0.02,49.0,meteohub,2013-10-08 12:02:00,
2013-10-08 08:07:00,54.9,48.2,30.21,NNW,339,0.0,5.0,78,0.00,,,0.02,49.0,meteohub,2013-10-08 12:07:00,
2013-10-08 08:12:00,54.9,48.2,30.21,NNW,335,0.0,5.0,78,0.00,,,0.02,49.0,meteohub,2013-10-08 12:12:00,
2013-10-08 08:17:00,54.9,48.2,30.22,NNW,335,0.0,4.0,78,0.00,,,0.02,60.0,meteohub,2013-10-08 12:17:00,
2013-10-08 08:22:00,55.0,48.6,30.22,North,355,0.0,3.0,79,0.00,,,0.02,65.0,meteohub,2013-10-08 12:22:00,
2013-10-08 08:27:00,55.0,48.6,30.22,North,355,0.0,3.0,79,0.00,,,0.02,70.0,meteohub,2013-10-08 12:27:00,
2013-10-08 08:32:00,55.0,48.6,30.22,North,355,0.0,3.0,79,0.00,,,0.02,76.0,meteohub,2013-10-08 12:32:00,
2013-10-08 08:37:00,55.0,48.6,30.22,North,355,0.0,3.0,79,0.00,,,0.02,91.0,meteohub,2013-10-08 12:37:00,
2013-10-08 08:42:00,55.0,48.6,30.22,NNW,340,0.0,4.0,79,0.00,,,0.02,113.0,meteohub,2013-10-08 12:42:00,
2013-10-08 08:47:00,55.0,48.6,30.23,NNW,340,0.0,4.0,79,0.00,,,0.02,134.0,meteohub,2013-10-08 12:47:00,
2013-10-08 08:52:00,55.2,48.7,30.23,NNW,340,0.0,4.0,79,0.00,,,0.02,160.0,meteohub,2013-10-08 12:52:00,
2013-10-08 08:57:00,55.6,49.1,30.23,NNW,340,0.0,1.0,79,0.00,,,0.02,193.0,meteohub,2013-10-08 12:57:00,
2013-10-08 09:02:00,55.8,49.3,30.23,NNW,340,0.0,1.0,79,0.00,,,0.02,195.0,meteohub,2013-10-08 13:02:00,
2013-10-08 09:07:00,56.1,49.6,30.23,NNW,348,0.0,1.0,79,0.00,,,0.02,225.0,meteohub,2013-10-08 13:07:00,
2013-10-08 09:12:00,56.5,49.6,30.23,NNW,345,0.0,3.0,78,0.00,,,0.02,243.0,meteohub,2013-10-08 13:12:00,
2013-10-08 09:17:00,56.8,50.0,30.24,NNW,345,0.0,3.0,78,0.00,,,0.02,253.0,meteohub,2013-10-08 13:17:00,
2013-10-08 09:22:00,57.4,50.2,30.24,NNW,345,0.0,3.0,77,0.00,,,0.02,271.0,meteohub,2013-10-08 13:22:00,
2013-10-08 09:27:00,57.7,49.8,30.25,NNW,348,0.0,6.0,75,0.00,,,0.02,299.0,meteohub,2013-10-08 13:27:00,
2013-10-08 09:32:00,58.3,50.4,30.25,North,355,0.0,6.0,75,0.00,,,0.02,353.0,meteohub,2013-10-08 13:32:00,
2013-10-08 09:37:00,58.6,50.0,30.25,North,355,1.0,7.0,73,0.00,,,0.02,327.0,meteohub,2013-10-08 13:37:00,
2013-10-08 09:42:00,59.0,49.6,30.25,NNW,347,1.0,7.0,71,0.00,,,0.02,343.0,meteohub,2013-10-08 13:42:00,
2013-10-08 09:47:00,59.4,50.0,30.25,NNW,344,0.0,8.0,71,0.00,,,0.02,323.0,meteohub,2013-10-08 13:47:00,
2013-10-08 09:52:00,59.4,49.6,30.25,NNW,339,1.0,8.0,70,0.00,,,0.02,297.0,meteohub,2013-10-08 13:52:00,
2013-10-08 09:57:00,59.5,49.8,30.25,North,11,0.0,8.0,70,0.00,,,0.02,371.0,meteohub,2013-10-08 13:57:00,
2013-10-08 10:02:00,59.9,50.2,30.25,NNW,344,1.0,8.0,70,0.00,,,0.02,369.0,meteohub,2013-10-08 14:02:00,
2013-10-08 10:07:00,60.3,50.0,30.25,NW,317,8.0,8.0,69,0.00,,,0.02,462.0,meteohub,2013-10-08 14:07:00,
2013-10-08 10:12:00,61.0,50.4,30.25,NNE,26,2.0,8.0,68,0.00,,,0.02,480.0,meteohub,2013-10-08 14:12:00,
2013-10-08 10:17:00,61.7,50.7,30.25,NNE,18,1.0,8.0,67,0.00,,,0.02,519.0,meteohub,2013-10-08 14:17:00,
2013-10-08 10:22:00,62.4,49.6,30.25,NE,34,2.0,8.0,63,0.00,,,0.02,503.0,meteohub,2013-10-08 14:22:00,
2013-10-08 10:27:00,62.8,50.0,30.25,NNE,16,1.0,9.0,63,0.00,,,0.02,490.0,meteohub,2013-10-08 14:27:00,
2013-10-08 10:32:00,62.6,48.9,30.24,ENE,67,10.0,10.0,61,0.00,,,0.02,476.0,meteohub,2013-10-08 14:32:00,
2013-10-08 10:37:00,62.8,49.6,30.25,NNE,17,0.0,13.0,62,0.00,,,0.02,545.0,meteohub,2013-10-08 14:37:00,
2013-10-08 10:42:00,63.1,49.5,30.25,NE,41,6.0,13.0,61,0.00,,,0.02,515.0,meteohub,2013-10-08 14:42:00,
2013-10-08 10:47:00,63.1,49.1,30.24,NNE,20,11.0,11.0,60,0.00,,,0.02,487.0,meteohub,2013-10-08 14:47:00,
2013-10-08 10:52:00,62.8,48.2,30.24,NNW,344,10.0,11.0,59,0.00,,,0.02,501.0,meteohub,2013-10-08 14:52:00,
2013-10-08 10:57:00,62.8,48.2,30.24,NW,326,5.0,11.0,59,0.00,,,0.02,436.0,meteohub,2013-10-08 14:57:00,
2013-10-08 11:02:00,62.8,47.8,30.24,North,355,8.0,11.0,58,0.00,,,0.02,506.0,meteohub,2013-10-08 15:02:00,
2013-10-08 11:07:00,62.8,47.8,30.24,NNE,19,2.0,12.0,58,0.00,,,0.02,487.0,meteohub,2013-10-08 15:07:00,
2013-10-08 11:12:00,63.0,47.5,30.24,NNW,340,9.0,12.0,57,0.00,,,0.02,499.0,meteohub,2013-10-08 15:12:00,
2013-10-08 11:17:00,62.4,46.9,30.24,North,0,2.0,14.0,57,0.00,,,0.02,454.0,meteohub,2013-10-08 15:17:00,
2013-10-08 11:22:00,62.8,47.8,30.24,NW,321,2.0,14.0,58,0.00,,,0.02,483.0,meteohub,2013-10-08 15:22:00,
2013-10-08 11:27:00,62.8,47.3,30.24,NNE,24,5.0,13.0,57,0.00,,,0.02,559.0,meteohub,2013-10-08 15:27:00,
2013-10-08 11:32:00,63.1,46.8,30.24,NNE,32,4.0,12.0,55,0.00,,,0.02,626.0,meteohub,2013-10-08 15:32:00,
2013-10-08 11:37:00,63.3,46.9,30.25,NNE,19,4.0,15.0,55,0.00,,,0.02,531.0,meteohub,2013-10-08 15:37:00,
2013-10-08 11:42:00,63.7,47.7,30.25,NNE,32,10.0,15.0,56,0.00,,,0.02,559.0,meteohub,2013-10-08 15:42:00,
2013-10-08 11:47:00,64.0,47.1,30.25,NE,39,1.0,13.0,54,0.00,,,0.02,513.0,meteohub,2013-10-08 15:47:00,
2013-10-08 11:52:00,64.0,46.6,30.25,NW,314,5.0,13.0,53,0.00,,,0.02,512.0,meteohub,2013-10-08 15:52:00,
2013-10-08 11:57:00,63.3,46.4,30.25,North,355,0.0,13.0,54,0.00,,,0.02,494.0,meteohub,2013-10-08 15:57:00,
2013-10-08 12:02:00,63.3,46.4,30.25,NNE,19,4.0,13.0,54,0.00,,,0.02,459.0,meteohub,2013-10-08 16:02:00,
2013-10-08 12:07:00,63.1,46.2,30.24,NW,309,3.0,13.0,54,0.00,,,0.02,520.0,meteohub,2013-10-08 16:07:00,
2013-10-08 12:12:00,62.8,45.3,30.24,North,5,4.0,17.0,53,0.00,,,0.02,485.0,meteohub,2013-10-08 16:12:00,
2013-10-08 12:17:00,63.0,45.5,30.24,North,5,3.0,17.0,53,0.00,,,0.02,454.0,meteohub,2013-10-08 16:17:00,
2013-10-08 12:22:00,63.1,45.7,30.23,NNE,15,0.0,17.0,53,0.00,,,0.02,483.0,meteohub,2013-10-08 16:22:00,
2013-10-08 12:27:00,63.1,45.7,30.23,North,350,1.0,15.0,53,0.00,,,0.02,501.0,meteohub,2013-10-08 16:27:00,
2013-10-08 12:32:00,63.3,45.9,30.23,NNE,19,0.0,16.0,53,0.00,,,0.02,501.0,meteohub,2013-10-08 16:32:00,
2013-10-08 12:37:00,64.0,46.0,30.24,NE,38,0.0,16.0,52,0.00,,,0.02,524.0,meteohub,2013-10-08 16:37:00,
2013-10-08 12:42:00,64.0,45.5,30.24,NNE,15,9.0,14.0,51,0.00,,,0.02,501.0,meteohub,2013-10-08 16:42:00,
2013-10-08 12:47:00,63.9,45.9,30.24,NW,306,2.0,12.0,52,0.00,,,0.02,573.0,meteohub,2013-10-08 16:47:00,
2013-10-08 12:52:00,63.9,45.3,30.24,NW,314,2.0,12.0,51,0.00,,,0.02,578.0,meteohub,2013-10-08 16:52:00,
2013-10-08 12:58:00,64.0,46.0,30.23,NNW,348,1.0,12.0,52,0.00,,,0.02,538.0,meteohub,2013-10-08 16:58:00,
2013-10-08 13:03:00,63.9,45.9,30.23,NNW,338,5.0,12.0,52,0.00,,,0.02,548.0,meteohub,2013-10-08 17:03:00,
2013-10-08 13:08:00,64.6,46.6,30.23,NNE,13,2.0,11.0,52,0.00,,,0.02,455.0,meteohub,2013-10-08 17:08:00,
2013-10-08 13:13:00,64.6,45.5,30.23,NW,313,5.0,11.0,50,0.00,,,0.02,424.0,meteohub,2013-10-08 17:13:00,
2013-10-08 13:18:00,64.4,46.4,30.22,NW,308,8.0,11.0,52,0.00,,,0.02,403.0,meteohub,2013-10-08 17:18:00,
2013-10-08 13:23:00,64.8,46.8,30.22,North,0,3.0,11.0,52,0.00,,,0.02,487.0,meteohub,2013-10-08 17:23:00,
2013-10-08 13:28:00,64.9,46.9,30.22,NNW,333,0.0,10.0,52,0.00,,,0.02,438.0,meteohub,2013-10-08 17:28:00,
2013-10-08 13:33:00,64.9,45.9,30.22,North,5,7.0,11.0,50,0.00,,,0.02,596.0,meteohub,2013-10-08 17:33:00,
2013-10-08 13:38:00,64.8,46.2,30.22,NNW,328,3.0,11.0,51,0.00,,,0.02,591.0,meteohub,2013-10-08 17:38:00,
2013-10-08 13:43:00,65.7,46.0,30.22,NNW,332,5.0,14.0,49,0.00,,,0.02,519.0,meteohub,2013-10-08 17:43:00,
2013-10-08 13:48:00,65.5,45.9,30.22,NE,38,3.0,15.0,49,0.00,,,0.02,497.0,meteohub,2013-10-08 17:48:00,
2013-10-08 13:54:00,66.0,46.4,30.22,NNE,30,2.0,15.0,49,0.00,,,0.02,501.0,meteohub,2013-10-08 17:54:00,
2013-10-08 13:59:00,66.4,46.0,30.22,NE,44,5.0,15.0,48,0.00,,,0.02,529.0,meteohub,2013-10-08 17:59:00,
2013-10-08 14:04:00,66.7,46.4,30.22,NNE,13,5.0,10.0,48,0.00,,,0.02,512.0,meteohub,2013-10-08 18:04:00,
2013-10-08 14:09:00,66.4,45.5,30.23,NE,52,3.0,9.0,47,0.00,,,0.02,418.0,meteohub,2013-10-08 18:09:00,
2013-10-08 14:14:00,66.6,45.7,30.23,NW,315,3.0,9.0,47,0.00,,,0.02,417.0,meteohub,2013-10-08 18:14:00,
2013-10-08 14:19:00,66.7,45.9,30.23,NNE,32,0.0,9.0,47,0.00,,,0.02,408.0,meteohub,2013-10-08 18:19:00,
2013-10-08 14:24:00,66.6,45.7,30.23,NNW,338,6.0,9.0,47,0.00,,,0.02,427.0,meteohub,2013-10-08 18:24:00,
2013-10-08 14:29:00,66.4,46.6,30.24,North,5,3.0,9.0,49,0.00,,,0.02,429.0,meteohub,2013-10-08 18:29:00,
2013-10-08 14:34:00,66.9,46.0,30.24,North,355,3.0,9.0,47,0.00,,,0.02,427.0,meteohub,2013-10-08 18:34:00,
2013-10-08 14:39:00,66.7,46.4,30.24,NE,48,0.0,9.0,48,0.00,,,0.02,439.0,meteohub,2013-10-08 18:39:00,
2013-10-08 14:44:00,66.9,46.6,30.24,North,355,0.0,9.0,48,0.00,,,0.02,413.0,meteohub,2013-10-08 18:44:00,
2013-10-08 14:49:00,66.7,46.4,30.24,North,5,0.0,9.0,48,0.00,,,0.02,415.0,meteohub,2013-10-08 18:49:00,
2013-10-08 14:55:00,66.7,46.4,30.24,ENE,74,7.0,7.0,48,0.00,,,0.02,390.0,meteohub,2013-10-08 18:55:00,
2013-10-08 15:00:00,67.3,46.4,30.25,NNW,337,0.0,6.0,47,0.00,,,0.02,387.0,meteohub,2013-10-08 19:00:00,
2013-10-08 15:05:00,67.3,46.9,30.24,NE,42,0.0,8.0,48,0.00,,,0.02,343.0,meteohub,2013-10-08 19:05:00,
2013-10-08 15:10:00,67.3,47.5,30.24,NNE,33,0.0,8.0,49,0.00,,,0.02,330.0,meteohub,2013-10-08 19:10:00,
2013-10-08 15:15:00,66.9,46.0,30.24,North,0,3.0,7.0,47,0.00,,,0.02,346.0,meteohub,2013-10-08 19:15:00,
2013-10-08 15:20:00,66.9,45.5,30.24,NNE,31,7.0,8.0,46,0.00,,,0.02,330.0,meteohub,2013-10-08 19:20:00,
2013-10-08 15:25:00,67.1,45.0,30.24,NNW,346,0.0,8.0,45,0.00,,,0.02,320.0,meteohub,2013-10-08 19:25:00,
2013-10-08 15:30:00,66.9,45.5,30.24,NNE,22,0.0,8.0,46,0.00,,,0.02,325.0,meteohub,2013-10-08 19:30:00,
2013-10-08 15:35:00,67.3,45.9,30.24,NNW,329,0.0,8.0,46,0.00,,,0.02,299.0,meteohub,2013-10-08 19:35:00,
2013-10-08 15:40:00,66.9,45.5,30.24,NNW,336,6.0,7.0,46,0.00,,,0.02,287.0,meteohub,2013-10-08 19:40:00,
2013-10-08 15:45:00,66.7,45.3,30.24,NNE,17,0.0,9.0,46,0.00,,,0.02,288.0,meteohub,2013-10-08 19:45:00,
2013-10-08 15:51:00,66.7,45.3,30.24,NNE,26,0.0,9.0,46,0.00,,,0.02,278.0,meteohub,2013-10-08 19:51:00,
2013-10-08 15:56:00,67.1,45.7,30.24,NNE,19,0.0,8.0,46,0.00,,,0.02,223.0,meteohub,2013-10-08 19:56:00,
2013-10-08 16:01:00,66.9,45.5,30.24,NE,55,5.0,8.0,46,0.00,,,0.02,206.0,meteohub,2013-10-08 20:01:00,
2013-10-08 16:06:00,66.9,45.0,30.24,NE,34,2.0,8.0,45,0.00,,,0.02,195.0,meteohub,2013-10-08 20:06:00,
2013-10-08 16:11:00,66.9,45.5,30.23,NE,48,3.0,8.0,46,0.00,,,0.02,192.0,meteohub,2013-10-08 20:11:00,
2013-10-08 16:16:00,66.7,45.3,30.23,NNE,18,0.0,8.0,46,0.00,,,0.02,186.0,meteohub,2013-10-08 20:16:00,
2013-10-08 16:21:00,66.7,45.9,30.23,North,355,0.0,7.0,47,0.00,,,0.02,174.0,meteohub,2013-10-08 20:21:00,
2013-10-08 16:26:00,66.7,45.9,30.23,NE,53,0.0,7.0,47,0.00,,,0.02,169.0,meteohub,2013-10-08 20:26:00,
2013-10-08 16:31:00,66.6,45.7,30.23,NNE,33,0.0,8.0,47,0.00,,,0.02,162.0,meteohub,2013-10-08 20:31:00,
2013-10-08 16:37:00,66.6,45.7,30.23,NW,308,1.0,8.0,47,0.00,,,0.02,155.0,meteohub,2013-10-08 20:37:00,
2013-10-08 16:42:00,66.4,45.5,30.23,NNE,28,0.0,8.0,47,0.00,,,0.02,139.0,meteohub,2013-10-08 20:42:00,
2013-10-08 16:47:00,66.4,46.0,30.23,NNE,17,0.0,7.0,48,0.00,,,0.02,123.0,meteohub,2013-10-08 20:47:00,
2013-10-08 16:52:00,66.4,46.6,30.23,NE,49,0.0,7.0,49,0.00,,,0.02,111.0,meteohub,2013-10-08 20:52:00,
2013-10-08 16:57:00,66.2,46.4,30.23,NNE,13,0.0,7.0,49,0.00,,,0.02,104.0,meteohub,2013-10-08 20:57:00,
2013-10-08 17:02:00,66.0,46.4,30.24,NE,55,0.0,5.0,49,0.00,,,0.02,95.0,meteohub,2013-10-08 21:02:00,
2013-10-08 17:07:00,65.8,46.2,30.24,NE,34,0.0,5.0,49,0.00,,,0.02,91.0,meteohub,2013-10-08 21:07:00,
2013-10-08 17:12:00,65.7,46.6,30.24,NE,40,0.0,5.0,50,0.00,,,0.02,88.0,meteohub,2013-10-08 21:12:00,
2013-10-08 17:17:00,65.7,47.1,30.24,NNE,19,0.0,5.0,51,0.00,,,0.02,77.0,meteohub,2013-10-08 21:17:00,
2013-10-08 17:22:00,65.5,46.9,30.25,NE,36,2.0,5.0,51,0.00,,,0.02,69.0,meteohub,2013-10-08 21:22:00,
2013-10-08 17:27:00,65.1,46.6,30.25,NE,45,0.0,5.0,51,0.00,,,0.02,62.0,meteohub,2013-10-08 21:27:00,
2013-10-08 17:32:00,65.1,46.6,30.25,NE,40,0.0,5.0,51,0.00,,,0.02,56.0,meteohub,2013-10-08 21:32:00,
2013-10-08 17:37:00,64.9,45.9,30.25,NE,44,0.0,5.0,50,0.00,,,0.02,49.0,meteohub,2013-10-08 21:37:00,
2013-10-08 17:42:00,64.9,46.4,30.25,NE,49,0.0,5.0,51,0.00,,,0.02,44.0,meteohub,2013-10-08 21:42:00,
2013-10-08 17:47:00,64.8,45.7,30.25,NE,44,0.0,3.0,50,0.00,,,0.02,40.0,meteohub,2013-10-08 21:47:00,
2013-10-08 17:52:00,64.6,45.5,30.26,NNE,22,0.0,5.0,50,0.00,,,0.02,33.0,meteohub,2013-10-08 21:52:00,
2013-10-08 17:57:00,64.4,45.3,30.26,NE,36,1.0,6.0,50,0.00,,,0.02,26.0,meteohub,2013-10-08 21:57:00,
2013-10-08 18:02:00,64.2,45.1,30.26,NNE,31,0.0,6.0,50,0.00,,,0.02,19.0,meteohub,2013-10-08 22:02:00,
2013-10-08 18:07:00,64.0,45.0,30.26,NE,55,5.0,8.0,50,0.00,,,0.00,16.0,meteohub,2013-10-08 22:07:00,
2013-10-08 18:12:00,63.9,45.3,30.27,North,5,0.0,11.0,51,0.00,,,0.00,11.0,meteohub,2013-10-08 22:12:00,
2013-10-08 18:17:00,63.7,45.1,30.26,NNE,30,0.0,11.0,51,0.00,,,0.00,7.0,meteohub,2013-10-08 22:17:00,
2013-10-08 18:22:00,63.7,45.1,30.27,NE,49,0.0,7.0,51,0.00,,,0.00,0.0,meteohub,2013-10-08 22:22:00,
2013-10-08 18:27:00,63.3,45.3,30.27,NNE,26,1.0,7.0,52,0.00,,,0.00,0.0,meteohub,2013-10-08 22:27:00,
2013-10-08 18:32:00,63.1,45.1,30.27,NE,46,0.0,7.0,52,0.00,,,0.00,5.0,meteohub,2013-10-08 22:32:00,
2013-10-08 18:37:00,63.0,45.5,30.27,NE,34,0.0,7.0,53,0.00,,,0.00,5.0,meteohub,2013-10-08 22:37:00,
2013-10-08 18:42:00,63.0,45.5,30.27,NE,40,0.0,7.0,53,0.00,,,0.00,0.0,meteohub,2013-10-08 22:42:00,
2013-10-08 18:47:00,62.8,45.3,30.27,North,11,0.0,7.0,53,0.00,,,0.00,0.0,meteohub,2013-10-08 22:47:00,
2013-10-08 18:52:00,62.8,45.3,30.27,NNE,19,1.0,4.0,53,0.00,,,0.00,0.0,meteohub,2013-10-08 22:52:00,
2013-10-08 18:57:00,62.6,45.1,30.27,NNE,30,0.0,4.0,53,0.00,,,0.00,0.0,meteohub,2013-10-08 22:57:00,
2013-10-08 19:02:00,62.4,45.1,30.28,NNE,21,0.0,5.0,53,0.00,,,0.00,0.0,meteohub,2013-10-08 23:02:00,
2013-10-08 19:07:00,62.2,45.0,30.28,NNE,19,0.0,5.0,53,0.00,,,0.00,0.0,meteohub,2013-10-08 23:07:00,
2013-10-08 19:12:00,62.2,45.0,30.27,North,5,0.0,5.0,53,0.00,,,0.00,0.0,meteohub,2013-10-08 23:12:00,
2013-10-08 19:17:00,62.1,44.8,30.28,ENE,57,2.0,6.0,53,0.00,,,0.00,0.0,meteohub,2013-10-08 23:17:00,
2013-10-08 19:22:00,62.1,45.1,30.28,NE,38,0.0,6.0,54,0.00,,,0.00,0.0,meteohub,2013-10-08 23:22:00,
2013-10-08 19:27:00,61.9,45.5,30.28,NE,34,0.0,6.0,55,0.00,,,0.00,0.0,meteohub,2013-10-08 23:27:00,
2013-10-08 19:32:00,61.7,45.3,30.28,NE,39,0.0,5.0,55,0.00,,,0.00,0.0,meteohub,2013-10-08 23:32:00,
2013-10-08 19:37:00,61.5,45.7,30.28,NNE,32,0.0,3.0,56,0.00,,,0.00,0.0,meteohub,2013-10-08 23:37:00,
2013-10-08 19:42:00,61.3,46.0,30.28,NE,36,0.0,3.0,57,0.00,,,0.00,0.0,meteohub,2013-10-08 23:42:00,
2013-10-08 19:47:00,61.2,46.2,30.28,NE,36,0.0,3.0,58,0.00,,,0.00,0.0,meteohub,2013-10-08 23:47:00,
2013-10-08 19:52:00,61.2,46.8,30.28,NE,36,0.0,3.0,59,0.00,,,0.00,0.0,meteohub,2013-10-08 23:52:00,
2013-10-08 19:57:00,61.0,46.9,30.28,NE,36,0.0,0.0,60,0.00,,,0.00,0.0,meteohub,2013-10-08 23:57:00,
2013-10-08 20:02:00,60.8,46.8,30.28,NE,36,0.0,0.0,60,0.00,,,0.00,0.0,meteohub,2013-10-09 00:02:00,
2013-10-08 20:07:00,60.6,46.6,30.28,NNE,26,0.0,1.0,60,0.00,,,0.00,0.0,meteohub,2013-10-09 00:07:00,
2013-10-08 20:12:00,60.6,46.6,30.28,NNE,26,0.0,3.0,60,0.00,,,0.00,0.0,meteohub,2013-10-09 00:12:00,
2013-10-08 20:17:00,61.0,46.9,30.28,NNE,26,0.0,3.0,60,0.00,,,0.00,0.0,meteohub,2013-10-09 00:17:00,
2013-10-08 20:22:00,60.8,46.8,30.29,NNE,26,0.0,1.0,60,0.00,,,0.00,0.0,meteohub,2013-10-09 00:22:00,
2013-10-08 20:27:00,61.0,47.5,30.29,NE,36,0.0,1.0,61,0.00,,,0.00,0.0,meteohub,2013-10-09 00:27:00,
2013-10-08 20:32:00,60.6,46.6,30.29,ENE,62,1.0,3.0,60,0.00,,,0.00,0.0,meteohub,2013-10-09 00:32:00,
2013-10-08 20:37:00,60.4,46.9,30.29,ENE,62,0.0,3.0,61,0.00,,,0.00,0.0,meteohub,2013-10-09 00:37:00,
2013-10-08 20:42:00,60.4,46.9,30.29,ENE,62,0.0,3.0,61,0.00,,,0.00,0.0,meteohub,2013-10-09 00:42:00,
2013-10-08 20:47:00,60.3,46.4,30.29,NE,44,0.0,3.0,60,0.00,,,0.00,0.0,meteohub,2013-10-09 00:47:00,
2013-10-08 20:52:00,60.3,46.4,30.29,NNE,32,0.0,3.0,60,0.00,,,0.00,0.0,meteohub,2013-10-09 00:52:00,
2013-10-08 20:57:00,60.3,46.4,30.30,NNE,32,0.0,3.0,60,0.00,,,0.00,0.0,meteohub,2013-10-09 00:57:00,
2013-10-08 21:02:00,60.3,46.4,30.30,NNE,32,0.0,3.0,60,0.00,,,0.00,0.0,meteohub,2013-10-09 01:02:00,
2013-10-08 21:07:00,60.4,46.4,30.30,NE,44,0.0,2.0,60,0.00,,,0.00,0.0,meteohub,2013-10-09 01:07:00,
2013-10-08 21:12:00,60.4,46.4,30.30,NE,44,0.0,5.0,60,0.00,,,0.00,0.0,meteohub,2013-10-09 01:12:00,
2013-10-08 21:17:00,60.4,46.4,30.30,NNE,32,1.0,5.0,60,0.00,,,0.00,0.0,meteohub,2013-10-09 01:17:00,
2013-10-08 21:22:00,60.3,46.4,30.30,NE,37,0.0,4.0,60,0.00,,,0.00,0.0,meteohub,2013-10-09 01:22:00,
2013-10-08 21:27:00,60.3,46.8,30.30,NNE,32,0.0,4.0,61,0.00,,,0.00,0.0,meteohub,2013-10-09 01:27:00,
2013-10-08 21:32:00,60.1,46.6,30.30,NNE,32,0.0,2.0,61,0.00,,,0.00,0.0,meteohub,2013-10-09 01:32:00,
2013-10-08 21:37:00,60.1,46.9,30.30,NNE,28,0.0,0.0,62,0.00,,,0.00,0.0,meteohub,2013-10-09 01:37:00,
2013-10-08 21:42:00,59.9,46.8,30.31,NNE,28,0.0,0.0,62,0.00,,,0.00,0.0,meteohub,2013-10-09 01:42:00,
2013-10-08 21:47:00,59.7,46.8,30.31,NNE,28,0.0,0.0,62,0.00,,,0.00,0.0,meteohub,2013-10-09 01:47:00,
2013-10-08 21:52:00,59.5,46.6,30.31,NNE,29,0.0,0.0,62,0.00,,,0.00,0.0,meteohub,2013-10-09 01:52:00,
2013-10-08 21:57:00,59.5,46.6,30.31,NNE,28,0.0,0.0,62,0.00,,,0.00,0.0,meteohub,2013-10-09 01:57:00,
2013-10-08 22:02:00,59.5,46.6,30.31,NE,51,0.0,1.0,62,0.00,,,0.00,0.0,meteohub,2013-10-09 02:02:00,
2013-10-08 22:07:00,59.5,46.6,30.31,NE,36,0.0,2.0,62,0.00,,,0.00,0.0,meteohub,2013-10-09 02:07:00,
2013-10-08 22:13:00,59.5,46.6,30.31,NE,38,0.0,2.0,62,0.00,,,0.00,0.0,meteohub,2013-10-09 02:13:00,
2013-10-08 22:18:00,59.5,46.6,30.31,NE,39,0.0,2.0,62,0.00,,,0.00,0.0,meteohub,2013-10-09 02:18:00,
2013-10-08 22:23:00,59.9,46.8,30.31,NE,35,0.0,5.0,62,0.00,,,0.00,0.0,meteohub,2013-10-09 02:23:00,
2013-10-08 22:28:00,60.1,46.6,30.31,NE,47,0.0,7.0,61,0.00,,,0.00,0.0,meteohub,2013-10-09 02:28:00,
2013-10-08 22:33:00,60.1,46.9,30.31,NE,42,1.0,7.0,62,0.00,,,0.00,0.0,meteohub,2013-10-09 02:33:00,
2013-10-08 22:38:00,60.1,46.9,30.31,NE,35,3.0,4.0,62,0.00,,,0.00,0.0,meteohub,2013-10-09 02:38:00,
2013-10-08 22:43:00,60.3,47.1,30.31,NE,43,0.0,7.0,62,0.00,,,0.00,0.0,meteohub,2013-10-09 02:43:00,
2013-10-08 22:49:00,60.4,47.3,30.31,NNE,30,0.0,7.0,62,0.00,,,0.00,0.0,meteohub,2013-10-09 02:49:00,
2013-10-08 22:54:00,60.4,47.3,30.31,NE,47,2.0,7.0,62,0.00,,,0.00,0.0,meteohub,2013-10-09 02:54:00,
2013-10-08 22:59:00,60.4,47.3,30.31,North,5,0.0,7.0,62,0.00,,,0.00,0.0,meteohub,2013-10-09 02:59:00,
2013-10-08 23:04:00,60.4,47.3,30.31,NNE,28,0.0,7.0,62,0.00,,,0.00,0.0,meteohub,2013-10-09 03:04:00,
2013-10-08 23:09:00,60.4,47.3,30.31,ENE,59,0.0,8.0,62,0.00,,,0.00,0.0,meteohub,2013-10-09 03:09:00,
2013-10-08 23:14:00,60.6,47.5,30.31,ENE,69,3.0,8.0,62,0.00,,,0.00,0.0,meteohub,2013-10-09 03:14:00,
2013-10-08 23:19:00,60.6,47.5,30.31,NE,43,5.0,11.0,62,0.00,,,0.00,0.0,meteohub,2013-10-09 03:19:00,
2013-10-08 23:24:00,60.6,48.0,30.31,NE,36,2.0,11.0,63,0.00,,,0.00,0.0,meteohub,2013-10-09 03:24:00,
2013-10-08 23:30:00,60.6,48.0,30.31,NE,51,4.0,11.0,63,0.00,,,0.00,0.0,meteohub,2013-10-09 03:30:00,
2013-10-08 23:35:00,60.6,48.4,30.31,NNE,32,3.0,8.0,64,0.00,,,0.00,0.0,meteohub,2013-10-09 03:35:00,
2013-10-08 23:40:00,60.6,48.7,30.31,NE,49,3.0,8.0,65,0.00,,,0.00,0.0,meteohub,2013-10-09 03:40:00,
2013-10-08 23:45:00,60.6,48.7,30.31,NE,45,0.0,9.0,65,0.00,,,0.00,0.0,meteohub,2013-10-09 03:45:00,
2013-10-08 23:50:00,60.4,49.1,30.31,NE,53,2.0,9.0,66,0.00,,,0.00,0.0,meteohub,2013-10-09 03:50:00,
2013-10-08 23:56:00,60.6,49.3,30.31,ENE,64,3.0,9.0,66,0.00,,,0.00,0.0,meteohub,2013-10-09 03:56:00,